Time;durP1;ratioP1;P1;durP2;ratioP2;P2;SDS_P1;SDS_P2;PMS_P1;PMS_P2;Temp;Humidity;BMP_temperature;BMP_pressure;BME280_temperature;BME280_humidity;BME280_pressure;Samples;Min_cycle;Max_cycle;Signal;HPM_P1;HPM_P2
2022/04/09 00:00:34;;;;;;;15.77;6.80;;;;;;;;;;8235516;28;20047;-75
2022/04/09 00:04:39;;;;;;;10.52;6.60;;;;;;;;;;8234443;28;20054;-77
2022/04/09 00:08:41;;;;;;;11.02;5.85;;;;;;;;;;8228654;28;20121;-76
2022/04/09 00:12:46;;;;;;;9.77;6.22;;;;;;;;;;8221765;28;20495;-76
2022/04/09 00:16:50;;;;;;;9.77;6.75;;;;;;;;;;8234813;28;20477;-76
2022/04/09 00:20:54;;;;;;;12.07;5.88;;;;;;;;;;8234337;28;20055;-76
2022/04/09 00:24:56;;;;;;;9.75;6.25;;;;;;;;;;8233579;28;20450;-76
2022/04/09 00:28:59;;;;;;;9.68;6.38;;;;;;;;;;8234535;28;20061;-76
2022/04/09 00:33:03;;;;;;;10.02;6.30;;;;;;;;;;8235084;28;20435;-75
2022/04/09 00:37:06;;;;;;;9.45;6.32;;;;;;;;;;8234684;28;20050;-75
2022/04/09 00:41:10;;;;;;;11.80;6.25;;;;;;;;;;8234395;28;20055;-75
2022/04/09 00:45:14;;;;;;;8.82;5.88;;;;;;;;;;8234438;28;20106;-75
2022/04/09 00:49:18;;;;;;;9.45;5.95;;;;;;;;;;8232489;28;20046;-76
2022/04/09 00:53:22;;;;;;;8.98;5.22;;;;;;;;;;8233406;28;20050;-74
2022/04/09 00:57:26;;;;;;;8.13;5.30;;;;;;;;;;8234462;28;20047;-74
2022/04/09 01:01:30;;;;;;;9.77;5.70;;;;;;;;;;8234447;28;20062;-75
2022/04/09 01:05:35;;;;;;;9.00;5.72;;;;;;;;;;8233218;28;20046;-75
2022/04/09 01:09:38;;;;;;;7.22;4.95;;;;;;;;;;8233063;28;20093;-75
2022/04/09 01:13:41;;;;;;;7.95;5.15;;;;;;;;;;8234085;28;20463;-74
2022/04/09 01:17:44;;;;;;;9.30;5.20;;;;;;;;;;8233486;28;20050;-74
2022/04/09 01:21:49;;;;;;;8.45;5.57;;;;;;;;;;8233695;28;20117;-75
2022/04/09 01:25:53;;;;;;;7.38;5.20;;;;;;;;;;8233311;28;20058;-74
2022/04/09 01:29:55;;;;;;;7.22;5.40;;;;;;;;;;8233761;28;20102;-74
2022/04/09 01:33:58;;;;;;;7.18;5.00;;;;;;;;;;8233299;28;20043;-75
2022/04/09 01:38:00;;;;;;;9.45;5.63;;;;;;;;;;8233154;28;20043;-74
2022/04/09 01:42:10;;;;;;;6.72;5.28;;;;;;;;;;8233490;28;20537;-75
2022/04/09 01:46:12;;;;;;;8.15;5.22;;;;;;;;;;8233058;28;20042;-74
2022/04/09 01:50:15;;;;;;;9.10;5.00;;;;;;;;;;8232995;28;20047;-74
2022/04/09 01:54:18;;;;;;;7.47;4.88;;;;;;;;;;8232878;28;20050;-74
2022/04/09 01:58:22;;;;;;;8.30;4.72;;;;;;;;;;8232901;28;20046;-75
2022/04/09 02:02:25;;;;;;;10.02;6.18;;;;;;;;;;8232716;28;20050;-74
2022/04/09 02:06:28;;;;;;;9.38;5.55;;;;;;;;;;8231686;28;20050;-75
2022/04/09 02:10:32;;;;;;;8.20;5.40;;;;;;;;;;8233381;28;20047;-74
2022/04/09 02:14:36;;;;;;;9.15;5.40;;;;;;;;;;8232905;28;20039;-74
2022/04/09 02:18:39;;;;;;;9.75;5.18;;;;;;;;;;8237438;28;20062;-75
2022/04/09 02:22:43;;;;;;;13.20;5.90;;;;;;;;;;8238324;28;20050;-75
2022/04/09 02:26:46;;;;;;;10.43;6.10;;;;;;;;;;8238453;28;20051;-74
2022/04/09 02:30:50;;;;;;;7.60;5.45;;;;;;;;;;8238633;28;20051;-74
2022/04/09 02:34:54;;;;;;;9.75;6.03;;;;;;;;;;8238270;28;20047;-74
2022/04/09 02:38:57;;;;;;;12.70;7.63;;;;;;;;;;8238130;28;20055;-74
2022/04/09 02:42:59;;;;;;;8.60;6.50;;;;;;;;;;8238084;28;20047;-74
2022/04/09 02:47:03;;;;;;;9.40;6.15;;;;;;;;;;8238346;28;20054;-74
2022/04/09 02:51:06;;;;;;;8.63;5.85;;;;;;;;;;8238096;28;20054;-74
2022/04/09 02:55:09;;;;;;;10.80;6.85;;;;;;;;;;8261828;28;20038;-74
2022/04/09 02:59:13;;;;;;;9.35;5.60;;;;;;;;;;8269773;28;20121;-75
2022/04/09 03:03:17;;;;;;;10.35;7.70;;;;;;;;;;8261286;28;20405;-75
2022/04/09 03:07:19;;;;;;;10.30;5.93;;;;;;;;;;8237310;28;20057;-74
2022/04/09 03:11:22;;;;;;;9.20;5.60;;;;;;;;;;8237655;28;20051;-74
2022/04/09 03:15:26;;;;;;;10.27;6.05;;;;;;;;;;8237542;28;20069;-74
2022/04/09 03:19:30;;;;;;;7.65;5.80;;;;;;;;;;8237477;28;20073;-74
2022/04/09 03:23:33;;;;;;;11.43;7.20;;;;;;;;;;8236672;28;20130;-74
2022/04/09 03:27:37;;;;;;;12.57;8.20;;;;;;;;;;8236408;28;20062;-74
2022/04/09 03:31:39;;;;;;;11.10;7.38;;;;;;;;;;8237095;28;20077;-74
2022/04/09 03:35:44;;;;;;;13.90;7.22;;;;;;;;;;8236480;28;20043;-74
2022/04/09 03:39:46;;;;;;;13.38;7.97;;;;;;;;;;8236840;28;20479;-74
2022/04/09 03:43:50;;;;;;;13.63;8.27;;;;;;;;;;8236234;28;20047;-74
2022/04/09 03:47:53;;;;;;;16.77;9.38;;;;;;;;;;8236470;28;20055;-74
2022/04/09 03:51:57;;;;;;;12.75;8.70;;;;;;;;;;8236446;28;20047;-74
2022/04/09 03:56:00;;;;;;;14.38;8.82;;;;;;;;;;8235943;28;20047;-74
2022/04/09 04:00:03;;;;;;;16.77;9.90;;;;;;;;;;8236159;28;20046;-74
2022/04/09 04:04:06;;;;;;;18.63;10.52;;;;;;;;;;8236010;28;20046;-74
2022/04/09 04:08:10;;;;;;;21.00;10.77;;;;;;;;;;8235871;28;20479;-74
2022/04/09 04:12:13;;;;;;;20.05;11.85;;;;;;;;;;8235779;28;20050;-74
2022/04/09 04:16:16;;;;;;;25.25;13.43;;;;;;;;;;8235281;28;20050;-74
2022/04/09 04:20:18;;;;;;;23.75;13.48;;;;;;;;;;8234036;28;20117;-76
2022/04/09 04:24:23;;;;;;;20.85;12.70;;;;;;;;;;8234633;28;20057;-75
2022/04/09 04:28:26;;;;;;;22.83;13.38;;;;;;;;;;8234833;28;20054;-75
2022/04/09 04:32:29;;;;;;;27.15;13.63;;;;;;;;;;8234662;28;20047;-76
2022/04/09 04:36:31;;;;;;;25.20;13.88;;;;;;;;;;8235175;28;20097;-76
2022/04/09 04:40:38;;;;;;;22.35;14.00;;;;;;;;;;8233678;28;20051;-75
2022/04/09 04:44:41;;;;;;;26.95;13.80;;;;;;;;;;8234910;28;20043;-76
2022/04/09 04:48:43;;;;;;;26.95;15.48;;;;;;;;;;8225374;28;20046;-76
2022/04/09 04:52:46;;;;;;;31.05;16.88;;;;;;;;;;8234617;28;20046;-76
2022/04/09 04:56:50;;;;;;;26.67;14.68;;;;;;;;;;8234539;28;20570;-75
2022/04/09 05:00:53;;;;;;;26.70;13.85;;;;;;;;;;8233929;28;20046;-76
2022/04/09 05:04:56;;;;;;;24.33;14.02;;;;;;;;;;8232156;28;20054;-76
2022/04/09 05:08:58;;;;;;;22.80;13.00;;;;;;;;;;8215705;28;20050;-76
2022/04/09 05:13:03;;;;;;;19.50;12.02;;;;;;;;;;8233801;28;20051;-75
2022/04/09 05:17:05;;;;;;;21.15;12.00;;;;;;;;;;8233928;28;20053;-76
2022/04/09 05:21:08;;;;;;;21.13;12.68;;;;;;;;;;8234066;28;20047;-75
2022/04/09 05:25:13;;;;;;;20.95;12.25;;;;;;;;;;8233193;28;20178;-76
2022/04/09 05:29:17;;;;;;;21.88;12.32;;;;;;;;;;8233911;28;20050;-76
2022/04/09 05:33:20;;;;;;;21.13;12.57;;;;;;;;;;8232733;28;20688;-76
2022/04/09 05:37:22;;;;;;;23.42;13.00;;;;;;;;;;8232607;28;20130;-76
2022/04/09 05:41:25;;;;;;;23.15;13.23;;;;;;;;;;8225171;28;20431;-76
2022/04/09 05:45:29;;;;;;;23.02;13.00;;;;;;;;;;8230033;28;20046;-76
2022/04/09 05:49:31;;;;;;;19.63;12.05;;;;;;;;;;8232312;28;20054;-76
2022/04/09 05:53:34;;;;;;;22.45;14.00;;;;;;;;;;8239483;28;20046;-76
2022/04/09 05:57:37;;;;;;;23.02;12.45;;;;;;;;;;8240150;28;20070;-76
2022/04/09 06:01:41;;;;;;;19.77;10.65;;;;;;;;;;8239356;28;20053;-76
2022/04/09 06:05:44;;;;;;;19.67;11.88;;;;;;;;;;8239366;28;20042;-76
2022/04/09 06:09:49;;;;;;;18.35;11.35;;;;;;;;;;8238797;28;20050;-76
2022/04/09 06:13:52;;;;;;;10.13;6.63;;;;;;;;;;8238936;28;20097;-76
2022/04/09 06:17:57;;;;;;;10.20;6.57;;;;;;;;;;8239185;28;20053;-76
2022/04/09 06:22:01;;;;;;;13.15;7.30;;;;;;;;;;8238453;28;20104;-76
2022/04/09 06:26:04;;;;;;;16.65;9.73;;;;;;;;;;8238486;28;20109;-76
2022/04/09 06:30:09;;;;;;;9.50;6.35;;;;;;;;;;8238360;28;20047;-75
2022/04/09 06:34:15;;;;;;;13.93;7.30;;;;;;;;;;8237588;28;20094;-76
2022/04/09 06:38:29;;;;;;;13.77;8.75;;;;;;;;;;8228901;28;20063;-76
2022/04/09 06:42:42;;;;;;;15.68;8.93;;;;;;;;;;8209593;28;20525;-76
2022/04/09 06:47:08;;;;;;;20.17;12.80;;;;;;;;;;8204721;28;20050;-76
2022/04/09 06:51:22;;;;;;;19.45;9.00;;;;;;;;;;8208917;28;20134;-76
2022/04/09 06:55:55;;;;;;;15.38;8.95;;;;;;;;;;8232343;28;20093;-76
2022/04/09 07:00:13;;;;;;;9.35;5.72;;;;;;;;;;8237199;28;20137;-76
2022/04/09 07:04:28;;;;;;;9.95;5.25;;;;;;;;;;8235948;28;20396;-76
2022/04/09 07:08:42;;;;;;;21.27;7.38;;;;;;;;;;8235700;28;20053;-76
2022/04/09 07:12:52;;;;;;;6.97;4.45;;;;;;;;;;8236767;28;20047;-76
2022/04/09 07:17:20;;;;;;;12.57;5.00;;;;;;;;;;8233702;28;20047;-75
2022/04/09 07:21:49;;;;;;;7.10;4.13;;;;;;;;;;8230130;28;20062;-75
2022/04/09 07:26:08;;;;;;;6.85;3.95;;;;;;;;;;8229767;28;20047;-75
2022/04/09 07:30:30;;;;;;;7.82;4.30;;;;;;;;;;8231665;28;20133;-75
2022/04/09 07:35:03;;;;;;;7.45;4.43;;;;;;;;;;8221047;28;20054;-76
2022/04/09 07:39:41;;;;;;;10.20;5.55;;;;;;;;;;8219510;28;20039;-76
2022/04/09 07:44:42;;;;;;;10.57;7.10;;;;;;;;;;8222630;28;20462;-76
2022/04/09 07:49:12;;;;;;;13.18;8.35;;;;;;;;;;8230269;28;20059;-77
2022/04/09 07:53:28;;;;;;;16.88;9.13;;;;;;;;;;8235030;28;20442;-75
2022/04/09 07:57:32;;;;;;;8.13;5.10;;;;;;;;;;8235173;28;20454;-76
2022/04/09 08:01:49;;;;;;;9.57;5.80;;;;;;;;;;8229796;28;20050;-76
2022/04/09 08:06:05;;;;;;;7.47;4.60;;;;;;;;;;8235417;28;20070;-76
2022/04/09 08:10:21;;;;;;;7.30;4.78;;;;;;;;;;8226429;28;20051;-76
2022/04/09 08:14:49;;;;;;;9.87;5.30;;;;;;;;;;8234558;28;20101;-75
2022/04/09 08:18:58;;;;;;;9.82;5.68;;;;;;;;;;8234829;28;20451;-76
2022/04/09 08:23:09;;;;;;;13.07;7.18;;;;;;;;;;8233888;28;20051;-75
2022/04/09 08:27:30;;;;;;;11.60;5.80;;;;;;;;;;8225163;28;20047;-75
2022/04/09 08:32:04;;;;;;;8.20;5.03;;;;;;;;;;8234544;28;20047;-75
2022/04/09 08:36:39;;;;;;;10.50;5.35;;;;;;;;;;8233932;28;20047;-76
2022/04/09 08:41:11;;;;;;;9.35;5.03;;;;;;;;;;8233896;28;20047;-76
2022/04/09 08:45:34;;;;;;;9.20;4.75;;;;;;;;;;8234269;28;20043;-75
2022/04/09 08:49:57;;;;;;;13.48;7.25;;;;;;;;;;8233804;28;20060;-75
2022/04/09 08:54:24;;;;;;;12.52;6.85;;;;;;;;;;8233524;28;20109;-75
2022/04/09 08:58:41;;;;;;;11.88;6.80;;;;;;;;;;8233685;28;20061;-75
2022/04/09 09:07:55;;;;;;;13.32;8.20;;;;;;;;;;8200484;28;20444;-75
2022/04/09 09:12:10;;;;;;;17.27;9.95;;;;;;;;;;8201114;28;20488;-75
2022/04/09 09:16:33;;;;;;;20.00;8.23;;;;;;;;;;8226571;28;20055;-75
2022/04/09 09:20:56;;;;;;;15.57;7.68;;;;;;;;;;8233132;28;20050;-76
2022/04/09 09:25:04;;;;;;;12.38;6.20;;;;;;;;;;8231582;28;20055;-76
2022/04/09 09:29:29;;;;;;;10.77;6.32;;;;;;;;;;8232909;28;20133;-76
2022/04/09 09:33:45;;;;;;;37.75;21.33;;;;;;;;;;8232767;28;20047;-76
2022/04/09 09:38:23;;;;;;;20.40;12.07;;;;;;;;;;8232451;28;20495;-76
2022/04/09 09:47:26;;;;;;;13.43;8.40;;;;;;;;;;8232436;28;20058;-76
2022/04/09 09:52:06;;;;;;;14.02;7.40;;;;;;;;;;8231921;28;20046;-76
2022/04/09 09:56:14;;;;;;;14.40;8.10;;;;;;;;;;8221616;28;20051;-76
2022/04/09 10:00:28;;;;;;;16.90;8.75;;;;;;;;;;8229327;28;20101;-76
2022/04/09 10:04:34;;;;;;;52.60;29.05;;;;;;;;;;8211456;28;20051;-76
2022/04/09 10:08:41;;;;;;;18.42;9.57;;;;;;;;;;8231463;28;20057;-76
2022/04/09 10:13:06;;;;;;;17.73;11.25;;;;;;;;;;8232033;28;20065;-75
2022/04/09 10:17:16;;;;;;;31.83;21.90;;;;;;;;;;8231987;28;20129;-76
2022/04/09 10:21:51;;;;;;;12.95;9.52;;;;;;;;;;8232800;28;20050;-76
2022/04/09 10:26:07;;;;;;;18.88;11.20;;;;;;;;;;8231670;28;20138;-76
2022/04/09 10:30:25;;;;;;;20.73;13.30;;;;;;;;;;8229197;28;20038;-75
2022/04/09 10:35:01;;;;;;;18.88;12.95;;;;;;;;;;8224098;28;20035;-76
2022/04/09 10:39:39;;;;;;;28.00;20.23;;;;;;;;;;8234319;28;20047;-76
2022/04/09 10:43:53;;;;;;;27.13;18.55;;;;;;;;;;8235074;28;20051;-76
2022/04/09 10:48:10;;;;;;;14.48;9.35;;;;;;;;;;8234544;28;20489;-76
2022/04/09 10:52:15;;;;;;;12.82;9.82;;;;;;;;;;8232930;28;20101;-76
2022/04/09 10:56:28;;;;;;;17.75;12.52;;;;;;;;;;8269484;28;20053;-76
2022/04/09 11:00:43;;;;;;;10.63;7.72;;;;;;;;;;8258983;28;20498;-76
2022/04/09 11:04:53;;;;;;;16.02;7.85;;;;;;;;;;8226082;28;20050;-76
2022/04/09 11:09:00;;;;;;;11.60;7.32;;;;;;;;;;8237016;28;20050;-76
2022/04/09 11:13:10;;;;;;;14.38;6.55;;;;;;;;;;8227556;28;20043;-76
2022/04/09 11:17:24;;;;;;;11.52;6.15;;;;;;;;;;8236771;28;20046;-76
2022/04/09 11:21:35;;;;;;;12.63;6.82;;;;;;;;;;8236229;28;20105;-76
2022/04/09 11:25:50;;;;;;;9.77;6.05;;;;;;;;;;8235210;28;20051;-76
2022/04/09 11:29:59;;;;;;;16.58;7.05;;;;;;;;;;8234222;28;20050;-76
2022/04/09 11:34:04;;;;;;;12.55;5.50;;;;;;;;;;8234334;28;20097;-76
2022/04/09 11:38:11;;;;;;;8.70;5.57;;;;;;;;;;8235138;28;20067;-76
2022/04/09 11:42:15;;;;;;;16.58;8.68;;;;;;;;;;8236391;28;20121;-76
2022/04/09 11:46:19;;;;;;;11.32;5.80;;;;;;;;;;8236213;28;20043;-76
2022/04/09 11:50:25;;;;;;;10.60;6.55;;;;;;;;;;8235931;28;20065;-76
2022/04/09 11:54:32;;;;;;;10.27;6.88;;;;;;;;;;8235930;28;20234;-76
2022/04/09 11:58:45;;;;;;;10.13;6.22;;;;;;;;;;8232541;28;20047;-76
2022/04/09 12:03:27;;;;;;;10.90;5.05;;;;;;;;;;8235236;28;20054;-76
2022/04/09 12:07:54;;;;;;;18.92;12.02;;;;;;;;;;8234228;28;20047;-76
2022/04/09 12:12:07;;;;;;;7.80;4.93;;;;;;;;;;8217430;28;20047;-76
2022/04/09 12:16:22;;;;;;;9.48;5.53;;;;;;;;;;8222824;28;20051;-76
2022/04/09 12:20:39;;;;;;;8.15;4.95;;;;;;;;;;8231452;28;20561;-76
2022/04/09 12:25:13;;;;;;;6.18;3.97;;;;;;;;;;8201735;28;20427;-76
2022/04/09 12:29:36;;;;;;;16.90;10.20;;;;;;;;;;8202755;28;20059;-76
2022/04/09 12:34:05;;;;;;;11.60;7.47;;;;;;;;;;8231970;28;20392;-76
2022/04/09 12:38:38;;;;;;;10.95;5.03;;;;;;;;;;8233555;28;20057;-76
2022/04/09 12:42:54;;;;;;;8.07;5.50;;;;;;;;;;8233397;28;20062;-75
2022/04/09 12:47:04;;;;;;;10.05;4.93;;;;;;;;;;8232385;28;20133;-76
2022/04/09 12:51:27;;;;;;;20.30;10.60;;;;;;;;;;8233398;28;20054;-75
2022/04/09 12:56:00;;;;;;;29.30;17.77;;;;;;;;;;8233155;28;20047;-76
2022/04/09 13:00:07;;;;;;;8.40;4.65;;;;;;;;;;8233011;28;20043;-76
2022/04/09 13:04:15;;;;;;;18.33;8.88;;;;;;;;;;8233474;28;20292;-76
2022/04/09 13:08:23;;;;;;;144.70;70.43;;;;;;;;;;8233340;28;20046;-76
2022/04/09 13:12:30;;;;;;;12.88;7.22;;;;;;;;;;8233145;28;20081;-76
2022/04/09 13:16:35;;;;;;;29.45;16.98;;;;;;;;;;8232906;28;20491;-76
2022/04/09 13:20:54;;;;;;;20.05;12.80;;;;;;;;;;8233275;28;20093;-75
2022/04/09 13:25:00;;;;;;;8.70;4.45;;;;;;;;;;8232353;28;20069;-76
2022/04/09 13:29:14;;;;;;;17.40;10.32;;;;;;;;;;8232760;28;20058;-76
2022/04/09 13:33:51;;;;;;;44.47;18.88;;;;;;;;;;8232266;28;20043;-76
2022/04/09 13:38:06;;;;;;;12.52;5.30;;;;;;;;;;8200825;28;20428;-76
2022/04/09 13:42:20;;;;;;;8.52;4.00;;;;;;;;;;8199880;28;20067;-76
2022/04/09 13:46:45;;;;;;;14.60;6.28;;;;;;;;;;8227414;28;20053;-76
2022/04/09 13:50:52;;;;;;;6.40;3.88;;;;;;;;;;8225624;28;20058;-76
2022/04/09 13:55:02;;;;;;;10.57;4.50;;;;;;;;;;8226445;28;20043;-75
2022/04/09 13:59:46;;;;;;;8.18;3.80;;;;;;;;;;8220011;28;20138;-76
2022/04/09 14:04:11;;;;;;;14.32;6.53;;;;;;;;;;8232214;28;20146;-76
2022/04/09 14:12:55;;;;;;;11.43;4.40;;;;;;;;;;8216534;28;20069;-75
2022/04/09 14:17:00;;;;;;;6.85;4.03;;;;;;;;;;8229079;28;20047;-75
2022/04/09 14:21:09;;;;;;;8.93;4.10;;;;;;;;;;8219169;28;20514;-75
2022/04/09 14:25:14;;;;;;;8.82;4.35;;;;;;;;;;8228892;28;20063;-76
2022/04/09 14:29:19;;;;;;;7.85;3.85;;;;;;;;;;8231723;28;20422;-76
2022/04/09 14:33:29;;;;;;;8.00;3.42;;;;;;;;;;8224055;28;20062;-76
2022/04/09 14:37:41;;;;;;;7.13;3.00;;;;;;;;;;8225366;28;20415;-76
2022/04/09 14:41:53;;;;;;;9.15;3.72;;;;;;;;;;8222307;28;20042;-75
2022/04/09 14:45:56;;;;;;;5.43;2.75;;;;;;;;;;8227507;28;20093;-75
2022/04/09 14:50:02;;;;;;;4.35;2.50;;;;;;;;;;8231074;28;20458;-75
2022/04/09 14:54:07;;;;;;;7.38;2.80;;;;;;;;;;8225966;28;20600;-75
2022/04/09 14:58:11;;;;;;;8.13;3.00;;;;;;;;;;8223775;28;20057;-76
2022/04/09 15:02:14;;;;;;;5.32;2.25;;;;;;;;;;8218602;28;20130;-76
2022/04/09 15:06:17;;;;;;;5.30;2.38;;;;;;;;;;8226985;28;20043;-76
2022/04/09 15:10:25;;;;;;;4.20;2.70;;;;;;;;;;8228121;28;20565;-75
2022/04/09 15:14:30;;;;;;;7.07;3.20;;;;;;;;;;8215355;28;20057;-75
2022/04/09 15:18:40;;;;;;;14.23;4.55;;;;;;;;;;8223657;28;20498;-75
2022/04/09 15:22:47;;;;;;;8.15;3.60;;;;;;;;;;8224757;28;20058;-76
2022/04/09 15:26:56;;;;;;;5.30;2.75;;;;;;;;;;8224050;28;20138;-75
2022/04/09 15:31:01;;;;;;;7.28;3.00;;;;;;;;;;8224190;28;20073;-75
2022/04/09 15:35:05;;;;;;;12.88;5.65;;;;;;;;;;8224047;28;20458;-75
2022/04/09 15:39:11;;;;;;;11.07;4.63;;;;;;;;;;8224685;28;20043;-75
2022/04/09 15:43:19;;;;;;;6.85;3.47;;;;;;;;;;8225181;28;20043;-75
2022/04/09 15:47:24;;;;;;;11.50;3.70;;;;;;;;;;8221560;28;20057;-76
2022/04/09 15:51:28;;;;;;;8.57;4.20;;;;;;;;;;8223927;28;20445;-75
2022/04/09 15:55:33;;;;;;;4.68;2.63;;;;;;;;;;8215327;28;20047;-76
2022/04/09 15:59:38;;;;;;;6.38;3.20;;;;;;;;;;8224222;28;20046;-75
2022/04/09 16:03:41;;;;;;;10.88;3.90;;;;;;;;;;8218871;28;20054;-74
2022/04/09 16:07:44;;;;;;;6.78;3.20;;;;;;;;;;8220282;28;20083;-74
2022/04/09 16:11:48;;;;;;;6.50;3.60;;;;;;;;;;8228310;28;20058;-74
2022/04/09 16:15:52;;;;;;;53.95;19.02;;;;;;;;;;8234484;28;20054;-74
2022/04/09 16:19:55;;;;;;;10.10;5.75;;;;;;;;;;8234089;28;20051;-75
2022/04/09 16:23:58;;;;;;;7.43;3.92;;;;;;;;;;8232312;28;20142;-75
2022/04/09 16:28:01;;;;;;;8.23;4.07;;;;;;;;;;8232116;28;20046;-74
2022/04/09 16:32:07;;;;;;;10.77;5.25;;;;;;;;;;8234221;28;20051;-74
2022/04/09 16:36:10;;;;;;;12.32;4.93;;;;;;;;;;8232483;28;20050;-75
2022/04/09 16:40:13;;;;;;;15.38;7.13;;;;;;;;;;8234734;28;20051;-75
2022/04/09 16:44:16;;;;;;;12.48;7.07;;;;;;;;;;8234572;28;20050;-74
2022/04/09 16:48:21;;;;;;;15.63;8.82;;;;;;;;;;8234826;28;20042;-74
2022/04/09 16:52:25;;;;;;;26.45;13.77;;;;;;;;;;8234791;28;20133;-75
2022/04/09 16:56:28;;;;;;;22.25;11.55;;;;;;;;;;8234196;28;20070;-74
2022/04/09 17:00:32;;;;;;;27.17;14.18;;;;;;;;;;8233851;28;20051;-75
2022/04/09 17:04:36;;;;;;;63.05;37.85;;;;;;;;;;8232281;28;20114;-75
2022/04/09 17:08:40;;;;;;;30.55;16.55;;;;;;;;;;8233823;28;20070;-75
2022/04/09 17:12:42;;;;;;;22.58;10.02;;;;;;;;;;8234598;28;20054;-75
2022/04/09 17:16:51;;;;;;;22.23;9.23;;;;;;;;;;8228196;28;20411;-75
2022/04/09 17:21:02;;;;;;;23.48;11.30;;;;;;;;;;8218064;28;20097;-75
2022/04/09 17:25:23;;;;;;;20.95;8.52;;;;;;;;;;8232652;28;20059;-75
2022/04/09 17:29:38;;;;;;;16.70;5.65;;;;;;;;;;8232763;28;20094;-75
2022/04/09 17:33:45;;;;;;;46.50;17.30;;;;;;;;;;8232496;28;20057;-74
2022/04/09 17:38:00;;;;;;;14.18;6.25;;;;;;;;;;8232954;28;20410;-76
2022/04/09 17:42:27;;;;;;;13.50;5.87;;;;;;;;;;8233108;28;20050;-76
2022/04/09 17:51:41;;;;;;;9.57;4.53;;;;;;;;;;8223541;28;20055;-75
2022/04/09 18:01:29;;;;;;;19.98;7.65;;;;;;;;;;8228148;28;20141;-75
2022/04/09 18:06:03;;;;;;;25.23;9.63;;;;;;;;;;8238936;28;20073;-75
2022/04/09 18:10:14;;;;;;;15.18;6.88;;;;;;;;;;8238261;28;20055;-75
2022/04/09 18:14:29;;;;;;;12.57;5.40;;;;;;;;;;8238932;28;20075;-75
2022/04/09 18:18:40;;;;;;;11.52;4.75;;;;;;;;;;8238755;28;20046;-75
2022/04/09 18:22:53;;;;;;;12.35;7.13;;;;;;;;;;8230711;28;20063;-75
2022/04/09 18:27:14;;;;;;;14.45;9.18;;;;;;;;;;8236944;28;20093;-75
2022/04/09 18:31:32;;;;;;;15.48;8.13;;;;;;;;;;8237977;28;20050;-75
2022/04/09 18:36:02;;;;;;;18.95;10.75;;;;;;;;;;8238343;28;20053;-75
2022/04/09 18:40:15;;;;;;;16.38;7.32;;;;;;;;;;8238108;28;20097;-75
2022/04/09 18:44:25;;;;;;;8.57;4.70;;;;;;;;;;8237192;28;20133;-75
2022/04/09 18:48:33;;;;;;;11.40;6.07;;;;;;;;;;8238502;28;20047;-75
2022/04/09 18:53:02;;;;;;;10.35;5.80;;;;;;;;;;8241510;28;20398;-75
2022/04/09 18:57:20;;;;;;;8.32;4.47;;;;;;;;;;8267971;28;20050;-75
2022/04/09 19:01:29;;;;;;;10.23;4.80;;;;;;;;;;8266133;28;20442;-75
2022/04/09 19:05:32;;;;;;;12.07;5.53;;;;;;;;;;8236924;28;20046;-75
2022/04/09 19:09:37;;;;;;;31.05;15.88;;;;;;;;;;8235244;28;20058;-74
2022/04/09 19:13:40;;;;;;;24.10;12.75;;;;;;;;;;8213440;28;20051;-74
2022/04/09 19:18:29;;;;;;;20.15;9.48;;;;;;;;;;8235060;28;20047;-75
2022/04/09 19:22:39;;;;;;;18.90;9.30;;;;;;;;;;8235562;28;20406;-75
2022/04/09 19:26:48;;;;;;;14.48;7.00;;;;;;;;;;8235879;28;20384;-74
2022/04/09 19:31:03;;;;;;;16.17;9.48;;;;;;;;;;8214834;28;20043;-75
2022/04/09 19:35:22;;;;;;;16.13;6.50;;;;;;;;;;8232022;28;20070;-75
2022/04/09 19:39:28;;;;;;;13.38;5.82;;;;;;;;;;8233927;28;20463;-75
2022/04/09 19:43:35;;;;;;;75.95;25.30;;;;;;;;;;8231099;28;20093;-74
2022/04/09 19:47:39;;;;;;;63.95;18.45;;;;;;;;;;8234056;28;20050;-75
2022/04/09 19:51:47;;;;;;;50.28;15.35;;;;;;;;;;8234746;28;20077;-76
2022/04/09 19:55:50;;;;;;;19.02;7.55;;;;;;;;;;8234102;28;20051;-76
2022/04/09 19:59:55;;;;;;;254.70;73.43;;;;;;;;;;8205699;28;20408;-74
2022/04/09 20:03:58;;;;;;;229.02;46.28;;;;;;;;;;8201191;28;20043;-75
2022/04/09 20:08:01;;;;;;;48.03;10.50;;;;;;;;;;8203273;28;20047;-74
2022/04/09 20:12:05;;;;;;;164.07;49.42;;;;;;;;;;8202976;28;20051;-74
2022/04/09 20:16:09;;;;;;;310.63;84.22;;;;;;;;;;8203318;28;20047;-74
2022/04/09 20:20:13;;;;;;;31.35;12.80;;;;;;;;;;8203332;28;20067;-74
2022/04/09 20:24:16;;;;;;;130.73;35.30;;;;;;;;;;8203189;28;20059;-74
2022/04/09 20:28:19;;;;;;;70.38;25.80;;;;;;;;;;8203745;28;20107;-75
2022/04/09 20:32:23;;;;;;;45.47;16.02;;;;;;;;;;8202918;28;20047;-74
2022/04/09 20:36:26;;;;;;;24.88;9.13;;;;;;;;;;8203585;28;20055;-74
2022/04/09 20:40:30;;;;;;;16.45;7.60;;;;;;;;;;8202820;28;20047;-74
2022/04/09 20:44:32;;;;;;;16.17;6.38;;;;;;;;;;8203076;28;20051;-74
2022/04/09 20:48:37;;;;;;;10.52;5.22;;;;;;;;;;8202455;28;20051;-74
2022/04/09 20:52:40;;;;;;;14.65;7.00;;;;;;;;;;8202519;28;20058;-74
2022/04/09 20:56:44;;;;;;;12.73;5.53;;;;;;;;;;8202256;28;20058;-74
2022/04/09 21:00:47;;;;;;;13.32;6.53;;;;;;;;;;8202245;28;20057;-74
2022/04/09 21:04:52;;;;;;;14.20;6.10;;;;;;;;;;8202079;28;20055;-74
2022/04/09 21:08:55;;;;;;;8.80;5.22;;;;;;;;;;8201865;28;20057;-74
2022/04/09 21:12:58;;;;;;;10.27;5.13;;;;;;;;;;8201783;28;20055;-74
2022/04/09 21:17:00;;;;;;;9.65;5.25;;;;;;;;;;8201740;28;20054;-74
2022/04/09 21:21:05;;;;;;;10.57;5.55;;;;;;;;;;8201652;28;20047;-74
2022/04/09 21:25:07;;;;;;;10.38;5.25;;;;;;;;;;8201423;28;20067;-74
2022/04/09 21:29:10;;;;;;;14.68;5.75;;;;;;;;;;8202077;28;20047;-74
2022/04/09 21:33:13;;;;;;;13.57;5.00;;;;;;;;;;8201494;28;20039;-74
2022/04/09 21:37:17;;;;;;;9.80;5.00;;;;;;;;;;8201335;28;20059;-75
2022/04/09 21:41:19;;;;;;;9.77;5.20;;;;;;;;;;8201703;28;20451;-74
2022/04/09 21:45:22;;;;;;;8.95;4.72;;;;;;;;;;8201158;28;20043;-74
2022/04/09 21:49:25;;;;;;;10.45;5.05;;;;;;;;;;8201243;28;20075;-74
2022/04/09 21:53:29;;;;;;;11.10;5.50;;;;;;;;;;8201122;28;20095;-75
2022/04/09 21:57:32;;;;;;;15.68;5.43;;;;;;;;;;8201142;28;20047;-74
2022/04/09 22:01:35;;;;;;;9.93;5.65;;;;;;;;;;8201523;28;20099;-75
2022/04/09 22:05:37;;;;;;;12.57;6.03;;;;;;;;;;8202255;28;20287;-74
2022/04/09 22:09:41;;;;;;;11.02;5.10;;;;;;;;;;8201299;28;20431;-74
2022/04/09 22:13:44;;;;;;;11.60;5.40;;;;;;;;;;8200915;28;20058;-75
2022/04/09 22:17:47;;;;;;;10.70;5.53;;;;;;;;;;8201481;28;20510;-74
2022/04/09 22:21:49;;;;;;;10.95;5.28;;;;;;;;;;8201236;28;20155;-74
2022/04/09 22:25:54;;;;;;;12.85;5.32;;;;;;;;;;8200550;29;20066;-74
2022/04/09 22:29:56;;;;;;;10.82;5.35;;;;;;;;;;8200587;28;20073;-75
2022/04/09 22:34:00;;;;;;;17.27;6.65;;;;;;;;;;8204821;28;20498;-75
2022/04/09 22:38:03;;;;;;;14.35;6.13;;;;;;;;;;8206862;28;20047;-75
2022/04/09 22:42:08;;;;;;;9.77;5.60;;;;;;;;;;8206306;28;20047;-75
2022/04/09 22:46:10;;;;;;;14.55;5.95;;;;;;;;;;8206441;28;20039;-74
2022/04/09 22:50:13;;;;;;;14.25;6.00;;;;;;;;;;8206564;28;20043;-74
2022/04/09 22:54:16;;;;;;;15.60;5.78;;;;;;;;;;8239242;28;20062;-74
2022/04/09 22:58:23;;;;;;;11.52;6.13;;;;;;;;;;8270461;28;20050;-74
2022/04/09 23:02:25;;;;;;;13.90;5.97;;;;;;;;;;8268362;28;20657;-74
2022/04/09 23:06:28;;;;;;;16.02;6.47;;;;;;;;;;8238322;28;20043;-75
2022/04/09 23:10:31;;;;;;;11.32;6.18;;;;;;;;;;8237894;28;20509;-74
2022/04/09 23:14:35;;;;;;;14.23;6.18;;;;;;;;;;8237460;28;20042;-74
2022/04/09 23:18:38;;;;;;;11.18;5.75;;;;;;;;;;8237265;28;20047;-74
2022/04/09 23:22:40;;;;;;;10.98;6.55;;;;;;;;;;8237344;28;20066;-74
2022/04/09 23:26:43;;;;;;;13.77;5.72;;;;;;;;;;8237525;28;20454;-75
2022/04/09 23:30:47;;;;;;;12.23;6.35;;;;;;;;;;8237302;28;20058;-75
2022/04/09 23:34:50;;;;;;;18.85;7.45;;;;;;;;;;8237346;28;20541;-74
2022/04/09 23:38:53;;;;;;;14.65;6.85;;;;;;;;;;8236688;28;20050;-74
2022/04/09 23:42:55;;;;;;;15.07;6.60;;;;;;;;;;8236595;28;20125;-74
2022/04/09 23:47:00;;;;;;;13.27;6.18;;;;;;;;;;8236052;28;20090;-74
2022/04/09 23:51:02;;;;;;;12.07;5.80;;;;;;;;;;8236615;28;20129;-74
2022/04/09 23:55:06;;;;;;;14.13;6.10;;;;;;;;;;8236109;28;20047;-74
2022/04/09 23:59:09;;;;;;;12.73;6.30;;;;;;;;;;8235943;28;20051;-74
